« 美ら島エアーフェスタ2018【1日目BI編】 那覇空港 2018/12/8 sat | トップページ | 定点 富山空港 2018/12/19 wed »

2018/12/18

美ら島エアーフェスタ2018【1日目基地編】 那覇空港 2018/12/8 sat

瀬長島から転戦して、夕方に基地に入ります。こんな時間に入場するのも初めてです。夕陽が恋しい時間ですね。

ROAH 080800Z 05010KT 9999 SCT020 BKN040 20/14 Q1022 RMK 3CU020 6SC040 A3018

20181208_roah_300

正門から坂道を下りながら、なにやら中止だとを

20181208_roah_301f728879

まずは、慰霊して

20181208_roah_302f238115

23-8115 F-2B 6SQ

20181208_roah_303f078428

先週逢った尾白さん

20181208_roah_304f078428

20181208_roah_305f078428

07-8428 F-4EJk 302SQ

20181208_roah_306f304sq

304SQは琉球天狗さん

20181208_roah_307f204sq

204SQは、パイロットと記念撮影

20181208_roah_308t165800

T-4とF-15がコクピット開放

16-5800 T-4 304SQ / 36-5698 T-4 204SQ

20181208_roah_309t165801

列線には南西空のT-4

16-5801 T-4 SWAF / 56-5743 T-4 SWAF / 56-5740 T-4 SWAF

20181208_roah_310f628089

コクピット開放の15はいずれもD型

62-8099 F-15DJ 204SQ / 82-8092 F-15DJ 304SQ

20181208_roah_311t465731

46-5731 T-4 11SQ 予備のブルーさん

20181208_roah_312t665745

20181208_roah_313t665745

20181208_roah_314h884586

88-4586 UH-60J NAHA-ARS 出動待機ですね

20181208_roah_315c681203

68-1203 KC-2 403SQ

ROAH 080800Z 05010KT 9999 SCT020 BKN040 20/14 Q1022 RMK 3CU020 6SC040 A3018

20181208_roah_316h574493

57-4493 CH-47J(LR) NAHA-HT

20181208_roah_317fcv

消防車のライトが輝いてきました

20181208_roah_318jg

03式中距離地対空誘導弾 第15高射特科連隊

20181208_roah_319pac3

PAC3 第5高射群第17高射隊

20181208_roah_320ssam

11式短距離地対空誘導弾 第9基地防空隊

20181208_roah_321f328941

32-8941 F-15J 304SQ 昼間に飛んでない機体 他は

12-8927 82-8905 92-8909 22-8935 52-8954

20181208_roah_322fes

格納庫内のステージでは、延々とイベントが

20181208_roah_323e343452

E-2Cさんは大事に使われております

20181208_roah_324m5070

20181208_roah_325m5070

5070 P-3C VP-5 とおとおサンタさんにめぐり合えず

20181208_roah_326jg47111

JG47111 UH-60JA XV アクチャルのメディカル飛龍

20181208_roah_327u623004

62-3004 U-125A NAHA-ARS

20181208_roah_328e343452

34-3452 / 34-3453 E-2C 603SQ

20181208_roah_329rq

格納庫内では、レスキューの展示

20181208_roah_330ja05rc

JTA621 ROAH-ROIG JA05RK B737-8Q3

すっかり闇が深くなってきました

ROAH 080900Z 04011KT 360V070 9999 FEW020 BKN045 20/14 Q1022 RMK 2CU020 6SC045 A3020

20181208_roah_331t965625

96-5625 T-4 SWAF ステージ脇

20181208_roah_332rq

プロジェクト・マッピングが始まりました

20181208_roah_333f15

フライトは中止なれど、タクシーはするのです。

20181208_roah_334f15

白頭鷲さんが担当

20181208_roah_335rq

PMでパイロット紹介

20181208_roah_336f15

滑走路を横断して西側へ

20181208_roah_337f15

ROAH 080930Z 04015KT 9999 FEW015 SCT020 BKN045 19/14 Q1022 RMK 1CU015 3CU020 6SC045 A3020

20181208_roah_338pm

プロジェクトマッピングが続きます

20181208_roah_339pm

この人々が新しい趣向

20181208_roah_340pm

ありがとうございました。

20181208_roah_341f15

PMが終るところで、15が帰ってきます。

20181208_roah_342f15

20181208_roah_343f15

手前の旗は、白頭鷲

20181208_roah_344f078428

07-8428 F-4EJk 302SQ

最後に、夜尾白を拝んで基地をあとにします。

ROAH 080930Z 04015KT 9999 FEW015 SCT020 BKN045 19/14 Q1022 RMK 1CU015 3CU020 6SC045 A3020

|

« 美ら島エアーフェスタ2018【1日目BI編】 那覇空港 2018/12/8 sat | トップページ | 定点 富山空港 2018/12/19 wed »

BI」カテゴリの記事

那覇空港」カテゴリの記事

コメント

コメントを書く



(ウェブ上には掲載しません)


コメントは記事投稿者が公開するまで表示されません。



トラックバック


この記事へのトラックバック一覧です: 美ら島エアーフェスタ2018【1日目基地編】 那覇空港 2018/12/8 sat:

« 美ら島エアーフェスタ2018【1日目BI編】 那覇空港 2018/12/8 sat | トップページ | 定点 富山空港 2018/12/19 wed »